This is the latest recevied weather packets stored in our database for station/object EA1BQO-1. If no packets are shown the sender has not sent any weather packets the latest 10 day(s).
| Time | Temp. | Humidity | Pressure | Rain* | Wind** | Luminosity | Snow |
|---|---|---|---|---|---|---|---|
| 1777724161 | 18.33° C | 52% | 1010.5 hPa | 0 mm | - | - | - |
| 1777723561 | 19.44° C | 42% | 1010.4 hPa | 0 mm | - | - | - |
| 1777722961 | 20° C | 42% | 1010.5 hPa | 0 mm | - | - | - |
| 1777722361 | 18.89° C | 45% | 1010.4 hPa | 0 mm | - | - | - |
| 1777721761 | 18.89° C | 44% | 1010.6 hPa | 0 mm | - | - | - |
| 1777721161 | 20° C | 40% | 1010.6 hPa | 0 mm | - | - | - |
| 1777720561 | 20° C | 42% | 1010.8 hPa | 0 mm | - | - | - |
| 1777719961 | 20° C | 49% | 1011 hPa | 0 mm | - | - | - |
| 1777719361 | 20° C | 50% | 1010.9 hPa | 0 mm | - | - | - |
| 1777718761 | 20° C | 48% | 1011.3 hPa | 0 mm | - | - | - |
| 1777718161 | 20° C | 47% | 1011.4 hPa | 0 mm | - | - | - |
| 1777717561 | 20° C | 50% | 1011.6 hPa | 0 mm | - | - | - |
| 1777716961 | 18.89° C | 51% | 1011.3 hPa | 0 mm | - | - | - |
| 1777716361 | 19.44° C | 52% | 1011.5 hPa | 0 mm | - | - | - |
| 1777715761 | 19.44° C | 51% | 1011.7 hPa | 0 mm | - | - | - |
| 1777715161 | 18.89° C | 53% | 1011.9 hPa | 0 mm | - | - | - |
| 1777714561 | 18.89° C | 53% | 1011.7 hPa | 0 mm | - | - | - |
| 1777713961 | 18.89° C | 54% | 1012 hPa | 0 mm | - | - | - |
| 1777713361 | 18.89° C | 53% | 1012 hPa | 0 mm | - | - | - |
| 1777712761 | 18.89° C | 56% | 1012.2 hPa | 0 mm | - | - | - |
| 1777712161 | 18.89° C | 56% | 1012.2 hPa | 0 mm | - | - | - |
| 1777711561 | 18.33° C | 61% | 1012.2 hPa | 0 mm | - | - | - |
| 1777710961 | 17.78° C | 63% | 1012.3 hPa | 0 mm | - | - | - |
| 1777710360 | 17.22° C | 66% | 1012.2 hPa | 0 mm | - | - | - |
| 1777709761 | 16.67° C | 71% | 1012.3 hPa | 0 mm | - | - | - |
* Rain latest hour (hover to see other rain measurements)
** Current wind speed in m/s (hover to see current wind gust speed)